createdAt,value
2018-09-24T00:00:00.655Z,0.00
2018-09-24T00:01:00.459Z,0.00
2018-09-24T00:02:00.334Z,0.00
2018-09-24T00:03:00.207Z,0.00
2018-09-24T00:04:00.084Z,0.00
2018-09-24T00:04:59.957Z,0.00
2018-09-24T00:05:59.836Z,0.00
2018-09-24T00:06:59.706Z,0.00
2018-09-24T00:07:59.581Z,0.00
2018-09-24T00:08:59.455Z,0.00
2018-09-24T00:09:59.332Z,0.00
2018-09-24T00:10:59.206Z,0.00
2018-09-24T00:11:59.080Z,0.00
2018-09-24T00:12:58.960Z,0.00
2018-09-24T00:13:58.829Z,0.00
2018-09-24T00:14:58.703Z,0.00
2018-09-24T00:15:58.577Z,0.00
2018-09-24T00:16:58.450Z,0.00
2018-09-24T00:17:58.326Z,0.00
2018-09-24T00:18:58.201Z,0.00
2018-09-24T00:19:58.075Z,0.00
2018-09-24T00:20:57.950Z,0.00
2018-09-24T00:21:57.823Z,0.00
2018-09-24T00:22:57.696Z,0.00
2018-09-24T00:23:57.570Z,0.00
2018-09-24T00:24:57.446Z,0.00
2018-09-24T00:25:57.320Z,0.00
2018-09-24T00:26:57.193Z,0.00
2018-09-24T00:27:57.070Z,0.00
2018-09-24T00:28:56.942Z,0.00
2018-09-24T00:29:56.819Z,0.00
2018-09-24T00:30:56.693Z,0.00
2018-09-24T00:31:56.564Z,0.00
2018-09-24T00:32:56.439Z,0.00
2018-09-24T00:33:56.313Z,0.00
2018-09-24T00:34:56.185Z,0.00
2018-09-24T00:35:56.062Z,0.00
2018-09-24T00:36:55.935Z,0.00
2018-09-24T00:37:55.808Z,0.00
2018-09-24T00:38:55.682Z,0.00
2018-09-24T00:39:55.558Z,0.00
2018-09-24T00:40:55.432Z,0.00
2018-09-24T00:41:55.305Z,0.00
2018-09-24T00:42:55.179Z,0.00
2018-09-24T00:43:55.053Z,0.00
2018-09-24T00:44:54.927Z,0.00
2018-09-24T00:45:54.799Z,0.00
2018-09-24T00:46:54.673Z,0.00
2018-09-24T00:47:54.548Z,0.00
2018-09-24T00:48:54.422Z,0.00
2018-09-24T00:49:54.297Z,0.00
2018-09-24T00:50:54.168Z,0.00
2018-09-24T00:51:54.043Z,0.00
2018-09-24T00:52:53.918Z,0.00
2018-09-24T00:53:53.792Z,0.00
2018-09-24T00:54:53.667Z,0.00
2018-09-24T00:55:53.537Z,0.00
2018-09-24T00:56:53.410Z,0.00
2018-09-24T00:57:53.283Z,0.00
2018-09-24T00:58:53.159Z,0.00
2018-09-24T00:59:53.033Z,0.00
2018-09-24T01:00:52.905Z,0.00
2018-09-24T01:01:52.778Z,0.00
2018-09-24T01:02:52.652Z,0.00
2018-09-24T01:03:52.527Z,0.00
2018-09-24T01:04:52.402Z,0.00
2018-09-24T01:05:52.274Z,0.00
2018-09-24T01:06:52.149Z,0.00
2018-09-24T01:07:52.020Z,0.00
2018-09-24T01:08:51.897Z,0.00
2018-09-24T01:09:51.768Z,0.00
2018-09-24T01:10:51.640Z,0.00
2018-09-24T01:11:51.513Z,0.00
2018-09-24T01:12:51.389Z,0.00
2018-09-24T01:13:51.263Z,0.00
2018-09-24T01:14:51.139Z,0.00
2018-09-24T01:15:51.008Z,0.00
2018-09-24T01:16:50.884Z,0.00
2018-09-24T01:17:50.757Z,0.00
2018-09-24T01:18:50.632Z,0.00
2018-09-24T01:19:50.503Z,0.00
2018-09-24T01:20:50.378Z,0.00
2018-09-24T01:21:50.255Z,0.00
2018-09-24T01:22:50.125Z,0.00
2018-09-24T01:23:50.002Z,0.00
2018-09-24T01:24:49.876Z,0.00
2018-09-24T01:25:49.747Z,0.00
2018-09-24T01:26:49.621Z,0.00
2018-09-24T01:27:49.491Z,0.00
2018-09-24T01:28:49.368Z,0.00
2018-09-24T01:29:49.241Z,0.00
2018-09-24T01:30:49.114Z,0.00
2018-09-24T01:31:48.988Z,0.00
2018-09-24T01:32:48.861Z,0.00
2018-09-24T01:33:48.738Z,0.00
2018-09-24T01:34:48.608Z,0.00
2018-09-24T01:35:48.481Z,0.00
2018-09-24T01:36:48.355Z,0.00
2018-09-24T01:37:48.231Z,0.00
2018-09-24T01:38:48.103Z,0.00
2018-09-24T01:39:47.977Z,0.00
2018-09-24T01:40:47.851Z,0.00
2018-09-24T01:41:47.725Z,0.00
2018-09-24T01:42:47.599Z,0.00
2018-09-24T01:43:47.474Z,0.00
2018-09-24T01:44:47.344Z,0.00
2018-09-24T01:45:47.221Z,0.00
2018-09-24T01:46:47.093Z,0.00
2018-09-24T01:47:46.967Z,0.00
2018-09-24T01:48:46.840Z,0.00
2018-09-24T01:49:46.715Z,0.00
2018-09-24T01:50:46.589Z,0.00
2018-09-24T01:51:46.462Z,0.00
2018-09-24T01:52:46.334Z,0.00
2018-09-24T01:53:46.210Z,0.00
2018-09-24T01:54:46.082Z,0.00
2018-09-24T01:55:45.955Z,0.00
2018-09-24T01:56:45.830Z,0.00
2018-09-24T01:57:45.704Z,0.00
2018-09-24T01:58:45.578Z,0.00
2018-09-24T01:59:45.453Z,0.00
2018-09-24T02:00:45.326Z,0.00
2018-09-24T02:01:45.198Z,0.00
2018-09-24T02:02:45.071Z,0.00
2018-09-24T02:03:44.944Z,0.00
2018-09-24T02:04:44.817Z,0.00
2018-09-24T02:05:44.692Z,0.00
2018-09-24T02:06:44.566Z,0.00
2018-09-24T02:07:44.438Z,0.00
2018-09-24T02:08:44.314Z,0.00
2018-09-24T02:09:44.190Z,0.00
2018-09-24T02:10:44.058Z,0.00
2018-09-24T02:11:43.932Z,0.00
2018-09-24T02:12:43.807Z,0.00
2018-09-24T02:13:43.682Z,0.00
2018-09-24T02:14:43.552Z,0.00
2018-09-24T02:15:43.430Z,0.00
2018-09-24T02:16:43.302Z,0.00
2018-09-24T02:17:43.182Z,0.00
2018-09-24T02:18:43.048Z,0.00
2018-09-24T02:19:42.920Z,0.00
2018-09-24T02:20:42.803Z,0.00
2018-09-24T02:21:42.669Z,0.00
2018-09-24T02:22:42.540Z,0.00
2018-09-24T02:23:42.419Z,0.00
2018-09-24T02:24:42.290Z,0.00
2018-09-24T02:25:42.160Z,0.00
2018-09-24T02:26:42.035Z,0.00
2018-09-24T02:27:41.918Z,0.00
2018-09-24T02:28:41.783Z,0.00
2018-09-24T02:29:41.657Z,0.00
2018-09-24T02:30:41.528Z,0.00
2018-09-24T02:31:41.402Z,0.00
2018-09-24T02:32:41.275Z,0.00
2018-09-24T02:33:41.147Z,0.00
2018-09-24T02:34:41.020Z,0.00
2018-09-24T02:35:40.894Z,0.00
2018-09-24T02:36:40.768Z,0.00
2018-09-24T02:37:40.642Z,0.00
2018-09-24T02:38:40.515Z,0.00
2018-09-24T02:39:40.389Z,0.00
2018-09-24T02:40:40.286Z,0.00
2018-09-24T02:41:40.137Z,0.00
2018-09-24T02:42:40.008Z,0.00
2018-09-24T02:43:39.885Z,0.00
2018-09-24T02:44:39.757Z,0.00
2018-09-24T02:45:39.630Z,0.00
2018-09-24T02:46:39.502Z,0.00
2018-09-24T02:47:39.375Z,0.00
2018-09-24T02:48:39.251Z,0.00
2018-09-24T02:49:39.124Z,0.00
2018-09-24T02:50:38.995Z,0.00
2018-09-24T02:51:38.873Z,0.00
2018-09-24T02:52:38.744Z,0.00
2018-09-24T02:53:38.616Z,0.00
2018-09-24T02:54:38.490Z,0.00
2018-09-24T02:55:38.363Z,0.00
2018-09-24T02:56:38.242Z,0.00
2018-09-24T02:57:38.111Z,0.00
2018-09-24T02:58:37.988Z,0.00
2018-09-24T02:59:37.860Z,0.00
2018-09-24T03:00:37.733Z,0.00
2018-09-24T03:01:37.606Z,0.00
2018-09-24T03:02:37.480Z,0.00
2018-09-24T03:03:37.350Z,0.00
2018-09-24T03:04:37.223Z,0.00
2018-09-24T03:05:37.101Z,0.00
2018-09-24T03:06:36.986Z,0.00
2018-09-24T03:07:36.853Z,0.00
2018-09-24T03:08:36.719Z,0.00
2018-09-24T03:09:36.595Z,0.00
2018-09-24T03:10:36.467Z,0.00
2018-09-24T03:11:36.340Z,0.00
2018-09-24T03:12:36.215Z,0.00
2018-09-24T03:13:36.090Z,0.00
2018-09-24T03:14:35.960Z,0.00
2018-09-24T03:15:35.833Z,0.00
2018-09-24T03:16:35.709Z,0.00
2018-09-24T03:17:35.582Z,0.00
2018-09-24T03:18:35.455Z,0.00
2018-09-24T03:19:35.340Z,0.00
2018-09-24T03:20:35.214Z,0.00
2018-09-24T03:21:35.076Z,0.00
2018-09-24T03:22:34.949Z,0.00
2018-09-24T03:23:34.822Z,0.00
2018-09-24T03:24:34.697Z,0.00
2018-09-24T03:25:34.573Z,0.00
2018-09-24T03:26:34.444Z,0.00
2018-09-24T03:27:34.320Z,0.00
2018-09-24T03:28:34.191Z,0.00
2018-09-24T03:29:34.064Z,0.00
2018-09-24T03:30:33.946Z,0.00
2018-09-24T03:31:33.812Z,0.00
2018-09-24T03:32:33.687Z,0.00
2018-09-24T03:33:33.558Z,0.00
2018-09-24T03:34:33.438Z,0.00
2018-09-24T03:35:33.303Z,0.00
2018-09-24T03:36:33.183Z,0.00
2018-09-24T03:37:33.053Z,0.00
2018-09-24T03:38:32.926Z,0.00
2018-09-24T03:39:32.798Z,0.00
2018-09-24T03:40:32.674Z,0.00
2018-09-24T03:41:32.547Z,0.00
2018-09-24T03:42:32.422Z,0.00
2018-09-24T03:43:32.298Z,0.00
2018-09-24T03:44:32.174Z,0.00
2018-09-24T03:45:32.041Z,0.00
2018-09-24T03:46:31.913Z,0.00
2018-09-24T03:47:31.788Z,0.00
2018-09-24T03:48:31.665Z,0.00
2018-09-24T03:49:31.535Z,0.00
2018-09-24T03:50:31.409Z,0.00
2018-09-24T03:51:31.281Z,0.00
2018-09-24T03:52:31.160Z,0.00
2018-09-24T03:53:31.032Z,0.00
2018-09-24T03:54:30.906Z,0.00
2018-09-24T03:55:30.776Z,0.00
2018-09-24T03:56:30.651Z,0.00
2018-09-24T03:57:30.527Z,0.00
2018-09-24T03:58:30.398Z,0.00
2018-09-24T03:59:30.271Z,0.00
2018-09-24T04:00:30.146Z,0.00
2018-09-24T04:01:30.018Z,0.00
2018-09-24T04:02:29.890Z,0.00
2018-09-24T04:03:29.764Z,0.00
2018-09-24T04:04:29.640Z,0.00
2018-09-24T04:05:29.514Z,0.00
2018-09-24T04:06:29.384Z,0.00
2018-09-24T04:07:29.257Z,0.00
2018-09-24T04:08:29.131Z,0.00
2018-09-24T04:09:29.049Z,0.00
2018-09-24T04:10:28.877Z,0.00
2018-09-24T04:11:28.752Z,0.00
2018-09-24T04:12:28.625Z,0.00
2018-09-24T04:13:28.500Z,0.00
2018-09-24T04:14:28.371Z,0.00
2018-09-24T04:15:28.244Z,0.00
2018-09-24T04:16:28.118Z,0.00
2018-09-24T04:17:28.028Z,0.00
2018-09-24T04:18:27.866Z,0.00
2018-09-24T04:19:27.781Z,0.00
2018-09-24T04:20:27.615Z,0.00
2018-09-24T04:21:27.485Z,0.00
2018-09-24T04:22:27.357Z,0.00
2018-09-24T04:23:27.232Z,0.00
2018-09-24T04:24:27.108Z,0.00
2018-09-24T04:25:26.978Z,0.00
2018-09-24T04:26:26.854Z,0.00
2018-09-24T04:27:26.725Z,0.00
2018-09-24T04:28:26.615Z,0.00
2018-09-24T04:29:26.475Z,0.00
2018-09-24T04:30:26.344Z,0.00
2018-09-24T04:31:26.219Z,0.00
2018-09-24T04:32:26.093Z,0.00
2018-09-24T04:33:25.966Z,0.00
2018-09-24T04:34:25.837Z,0.00
2018-09-24T04:35:25.709Z,0.00
2018-09-24T04:36:25.583Z,0.00
2018-09-24T04:37:25.462Z,0.00
2018-09-24T04:38:25.346Z,0.00
2018-09-24T04:39:25.206Z,0.00
2018-09-24T04:40:25.079Z,0.00
2018-09-24T04:41:24.970Z,0.00
2018-09-24T04:42:24.823Z,0.00
2018-09-24T04:43:24.720Z,0.00
2018-09-24T04:44:24.627Z,0.00
2018-09-24T04:45:24.443Z,0.00
2018-09-24T04:46:24.332Z,0.00
2018-09-24T04:47:24.195Z,0.00
2018-09-24T04:48:24.064Z,0.00
2018-09-24T04:49:23.937Z,0.00
2018-09-24T04:50:23.808Z,4.00
2018-09-24T04:51:23.683Z,4.00
2018-09-24T04:52:23.560Z,4.00
2018-09-24T04:53:23.428Z,4.00
2018-09-24T04:54:23.300Z,4.00
2018-09-24T04:55:23.177Z,4.00
2018-09-24T04:56:23.052Z,4.00
2018-09-24T04:57:22.925Z,8.00
2018-09-24T04:58:22.794Z,4.00
2018-09-24T04:59:22.667Z,8.00
2018-09-24T05:00:22.541Z,8.00
2018-09-24T05:01:22.414Z,12.00
2018-09-24T05:02:22.286Z,12.00
2018-09-24T05:03:22.160Z,16.00
2018-09-24T05:04:22.035Z,20.00
2018-09-24T05:05:21.907Z,20.00
2018-09-24T05:06:21.780Z,20.00
2018-09-24T05:07:21.658Z,24.00
2018-09-24T05:08:21.527Z,24.00
2018-09-24T05:09:21.401Z,24.00
2018-09-24T05:10:21.332Z,32.00
2018-09-24T05:11:21.146Z,36.00
2018-09-24T05:12:21.020Z,40.00
2018-09-24T05:13:20.895Z,44.00
2018-09-24T05:14:20.764Z,44.00
2018-09-24T05:15:20.638Z,52.00
2018-09-24T05:16:20.591Z,56.00
2018-09-24T05:17:20.384Z,56.00
2018-09-24T05:18:20.258Z,60.00
2018-09-24T05:19:20.129Z,80.00
2018-09-24T05:20:20.004Z,92.00
2018-09-24T05:21:19.877Z,92.00
2018-09-24T05:22:19.751Z,76.00
2018-09-24T05:23:19.622Z,68.00
2018-09-24T05:24:19.496Z,68.00
2018-09-24T05:25:19.369Z,56.00
2018-09-24T05:26:19.241Z,56.00
2018-09-24T05:27:19.131Z,64.00
2018-09-24T05:28:18.990Z,68.00
2018-09-24T05:29:18.863Z,80.00
2018-09-24T05:30:18.734Z,104.00
2018-09-24T05:31:18.609Z,108.00
2018-09-24T05:32:18.486Z,116.00
2018-09-24T05:33:18.354Z,112.00
2018-09-24T05:34:18.280Z,108.00
2018-09-24T05:35:18.101Z,124.00
2018-09-24T05:36:17.974Z,136.00
2018-09-24T05:37:17.857Z,144.00
2018-09-24T05:38:17.723Z,164.00
2018-09-24T05:39:17.593Z,172.00
2018-09-24T05:40:17.465Z,164.00
2018-09-24T05:41:17.407Z,168.00
2018-09-24T05:42:17.209Z,200.00
2018-09-24T05:43:17.084Z,216.00
2018-09-24T05:44:16.958Z,188.00
2018-09-24T05:45:16.831Z,180.00
2018-09-24T05:46:16.702Z,216.00
2018-09-24T05:47:16.578Z,260.00
2018-09-24T05:48:16.451Z,252.00
2018-09-24T05:49:16.324Z,268.00
2018-09-24T05:50:16.194Z,240.00
2018-09-24T05:51:16.068Z,232.00
2018-09-24T05:52:15.943Z,244.00
2018-09-24T05:53:15.827Z,308.00
2018-09-24T05:54:15.695Z,424.00
2018-09-24T05:55:15.561Z,464.00
2018-09-24T05:56:15.433Z,436.00
2018-09-24T05:57:15.310Z,404.00
2018-09-24T05:58:15.179Z,468.00
2018-09-24T05:59:15.051Z,384.00
2018-09-24T06:00:14.925Z,364.00
2018-09-24T06:01:14.798Z,400.00
2018-09-24T06:02:14.672Z,376.00
2018-09-24T06:03:14.549Z,444.00
2018-09-24T06:04:14.418Z,520.00
2018-09-24T06:05:14.292Z,496.00
2018-09-24T06:06:14.166Z,504.00
2018-09-24T06:07:14.037Z,464.00
2018-09-24T06:08:13.912Z,412.00
2018-09-24T06:09:13.788Z,424.00
2018-09-24T06:10:13.657Z,380.00
2018-09-24T06:11:13.536Z,400.00
2018-09-24T06:12:13.407Z,460.00
2018-09-24T06:13:13.278Z,528.00
2018-09-24T06:14:13.152Z,492.00
2018-09-24T06:15:13.023Z,452.00
2018-09-24T06:16:12.898Z,468.00
2018-09-24T06:17:12.770Z,468.00
2018-09-24T06:18:12.644Z,488.00
2018-09-24T06:19:12.517Z,564.00
2018-09-24T06:20:12.389Z,700.00
2018-09-24T06:21:12.266Z,648.00
2018-09-24T06:22:12.137Z,544.00
2018-09-24T06:23:12.008Z,436.00
2018-09-24T06:24:11.882Z,408.00
2018-09-24T06:25:11.755Z,360.00
2018-09-24T06:26:11.632Z,316.00
2018-09-24T06:27:11.504Z,312.00
2018-09-24T06:28:11.374Z,320.00
2018-09-24T06:29:11.248Z,348.00
2018-09-24T06:30:11.120Z,424.00
2018-09-24T06:31:10.995Z,400.00
2018-09-24T06:32:10.870Z,352.00
2018-09-24T06:33:10.740Z,352.00
2018-09-24T06:34:10.624Z,344.00
2018-09-24T06:35:10.487Z,340.00
2018-09-24T06:36:10.358Z,336.00
2018-09-24T06:37:10.233Z,356.00
2018-09-24T06:38:10.105Z,304.00
2018-09-24T06:39:09.976Z,244.00
2018-09-24T06:40:09.854Z,236.00
2018-09-24T06:41:09.763Z,260.00
2018-09-24T06:42:09.605Z,292.00
2018-09-24T06:43:09.470Z,344.00
2018-09-24T06:44:09.342Z,420.00
2018-09-24T06:45:09.219Z,560.00
2018-09-24T06:46:09.088Z,564.00
2018-09-24T06:47:08.965Z,548.00
2018-09-24T06:48:08.834Z,552.00
2018-09-24T06:49:08.709Z,644.00
2018-09-24T06:50:08.580Z,712.00
2018-09-24T06:51:08.452Z,668.00
2018-09-24T06:52:08.325Z,660.00
2018-09-24T06:53:08.201Z,724.00
2018-09-24T06:54:08.071Z,760.00
2018-09-24T06:55:07.944Z,784.00
2018-09-24T06:56:07.828Z,852.00
2018-09-24T06:57:07.691Z,800.00
2018-09-24T06:58:07.562Z,752.00
2018-09-24T06:59:07.433Z,676.00
2018-09-24T07:00:07.309Z,624.00
2018-09-24T07:01:07.180Z,668.00
2018-09-24T07:02:07.058Z,712.00
2018-09-24T07:03:06.926Z,788.00
2018-09-24T07:04:06.801Z,940.00
2018-09-24T07:05:06.673Z,1008.00
2018-09-24T07:06:06.545Z,992.00
2018-09-24T07:07:06.421Z,980.00
2018-09-24T07:08:06.291Z,924.00
2018-09-24T07:09:06.166Z,884.00
2018-09-24T07:10:06.038Z,860.00
2018-09-24T07:11:05.912Z,804.00
2018-09-24T07:12:05.782Z,792.00
2018-09-24T07:13:05.658Z,772.00
2018-09-24T07:14:05.527Z,848.00
2018-09-24T07:15:05.402Z,964.00
2018-09-24T07:16:05.275Z,1112.00
2018-09-24T07:17:05.150Z,1040.00
2018-09-24T07:18:05.019Z,892.00
2018-09-24T07:19:04.893Z,904.00
2018-09-24T07:20:04.766Z,1044.00
2018-09-24T07:21:04.641Z,1192.00
2018-09-24T07:22:04.514Z,1156.00
2018-09-24T07:23:04.385Z,1052.00
2018-09-24T07:24:04.260Z,1036.00
2018-09-24T07:25:04.131Z,1024.00
2018-09-24T07:26:04.002Z,1004.00
2018-09-24T07:27:03.881Z,1016.00
2018-09-24T07:28:03.762Z,1316.00
2018-09-24T07:29:03.623Z,1412.00
2018-09-24T07:30:03.496Z,1424.00
2018-09-24T07:31:03.371Z,1896.00
2018-09-24T07:32:03.243Z,1764.00
2018-09-24T07:33:03.181Z,1136.00
2018-09-24T07:34:02.987Z,1196.00
2018-09-24T07:35:02.861Z,1132.00
2018-09-24T07:36:02.735Z,1392.00
2018-09-24T07:37:02.610Z,1372.00
2018-09-24T07:38:02.487Z,1456.00
2018-09-24T07:39:02.412Z,1416.00
2018-09-24T07:40:02.228Z,1916.00
2018-09-24T07:41:02.103Z,1636.00
2018-09-24T07:42:01.973Z,1584.00
2018-09-24T07:43:01.881Z,1552.00
2018-09-24T07:44:01.724Z,1544.00
2018-09-24T07:45:01.596Z,1672.00
2018-09-24T07:46:01.468Z,1760.00
2018-09-24T07:47:01.344Z,1340.00
2018-09-24T07:48:01.219Z,1248.00
2018-09-24T07:49:01.090Z,1260.00
2018-09-24T07:50:00.964Z,1712.00
2018-09-24T07:51:00.838Z,1840.00
2018-09-24T07:52:00.711Z,1784.00
2018-09-24T07:53:00.585Z,1620.00
2018-09-24T07:54:00.460Z,1708.00
2018-09-24T07:55:00.335Z,2076.00
2018-09-24T07:56:00.205Z,2264.00
2018-09-24T07:57:00.079Z,2932.00
2018-09-24T07:57:59.952Z,2660.00
2018-09-24T07:58:59.825Z,2940.00
2018-09-24T07:59:59.700Z,2700.00
2018-09-24T08:00:59.636Z,2432.00
2018-09-24T08:01:59.448Z,2128.00
2018-09-24T08:02:59.324Z,1980.00
2018-09-24T08:03:59.198Z,2792.00
2018-09-24T08:04:59.074Z,2896.00
2018-09-24T08:05:58.947Z,2984.00
2018-09-24T08:06:58.825Z,2708.00
2018-09-24T08:07:58.698Z,3340.00
2018-09-24T08:08:58.573Z,3444.00
2018-09-24T08:09:58.446Z,2672.00
2018-09-24T08:10:58.322Z,2900.00
2018-09-24T08:11:58.198Z,2636.00
2018-09-24T08:12:58.083Z,3564.00
2018-09-24T08:13:57.946Z,3128.00
2018-09-24T08:14:57.821Z,3400.00
2018-09-24T08:15:57.698Z,2680.00
2018-09-24T08:16:57.577Z,2528.00
2018-09-24T08:17:57.447Z,2808.00
2018-09-24T08:18:57.322Z,2964.00
2018-09-24T08:19:57.201Z,3136.00
2018-09-24T08:20:57.093Z,2724.00
2018-09-24T08:21:56.949Z,3296.00
2018-09-24T08:22:56.825Z,3804.00
2018-09-24T08:23:56.701Z,2944.00
2018-09-24T08:24:56.576Z,3636.00
2018-09-24T08:25:56.452Z,2980.00
2018-09-24T08:26:56.329Z,3160.00
2018-09-24T08:27:56.203Z,2776.00
2018-09-24T08:28:56.092Z,3092.00
2018-09-24T08:29:55.955Z,2804.00
2018-09-24T08:30:55.827Z,2628.00
2018-09-24T08:31:55.705Z,2992.00
2018-09-24T08:32:55.581Z,3208.00
2018-09-24T08:33:55.454Z,2896.00
2018-09-24T08:34:55.327Z,2736.00
2018-09-24T08:35:55.212Z,2388.00
2018-09-24T08:36:55.088Z,2104.00
2018-09-24T08:37:54.954Z,2088.00
2018-09-24T08:38:54.830Z,2452.00
2018-09-24T08:39:54.702Z,2488.00
2018-09-24T08:40:54.578Z,2124.00
2018-09-24T08:41:54.455Z,2440.00
2018-09-24T08:42:54.327Z,2264.00
2018-09-24T08:43:54.207Z,1964.00
2018-09-24T08:44:54.079Z,1944.00
2018-09-24T08:45:53.951Z,2444.00
2018-09-24T08:46:53.825Z,2936.00
2018-09-24T08:47:53.701Z,3152.00
2018-09-24T08:48:53.576Z,3376.00
2018-09-24T08:49:53.507Z,4312.00
2018-09-24T08:50:53.325Z,4476.00
2018-09-24T08:51:53.198Z,3836.00
2018-09-24T08:52:53.075Z,3420.00
2018-09-24T08:53:52.949Z,2932.00
2018-09-24T08:54:52.825Z,3380.00
2018-09-24T08:55:52.703Z,4972.00
2018-09-24T08:56:52.617Z,3348.00
2018-09-24T08:57:52.448Z,3600.00
2018-09-24T08:58:52.325Z,3712.00
2018-09-24T08:59:52.202Z,3936.00
2018-09-24T09:00:52.077Z,3340.00
2018-09-24T09:01:51.954Z,2960.00
2018-09-24T09:02:51.831Z,4340.00
2018-09-24T09:03:51.762Z,2964.00
2018-09-24T09:04:51.581Z,3672.00
2018-09-24T09:05:51.462Z,2888.00
2018-09-24T09:06:51.335Z,2948.00
2018-09-24T09:07:51.213Z,3692.00
2018-09-24T09:08:51.088Z,3912.00
2018-09-24T09:09:50.965Z,3984.00
2018-09-24T09:10:50.845Z,3900.00
2018-09-24T09:11:50.718Z,4092.00
2018-09-24T09:12:50.595Z,3424.00
2018-09-24T09:13:50.471Z,3372.00
2018-09-24T09:14:50.347Z,3480.00
2018-09-24T09:15:50.224Z,3856.00
2018-09-24T09:16:50.102Z,4364.00
2018-09-24T09:17:49.977Z,4284.00
2018-09-24T09:18:49.853Z,3980.00
2018-09-24T09:19:49.730Z,3856.00
2018-09-24T09:20:49.613Z,4216.00
2018-09-24T09:21:49.483Z,4924.00
2018-09-24T09:22:49.361Z,5064.00
2018-09-24T09:23:49.236Z,5032.00
2018-09-24T09:24:49.115Z,4504.00
2018-09-24T09:25:48.990Z,3884.00
2018-09-24T09:26:48.871Z,3592.00
2018-09-24T09:27:48.747Z,3804.00
2018-09-24T09:28:48.624Z,3936.00
2018-09-24T09:29:48.502Z,3368.00
2018-09-24T09:30:48.379Z,3700.00
2018-09-24T09:31:48.257Z,3916.00
2018-09-24T09:32:48.139Z,3808.00
2018-09-24T09:33:48.012Z,3696.00
2018-09-24T09:34:47.890Z,3564.00
2018-09-24T09:35:47.772Z,3608.00
2018-09-24T09:36:47.648Z,2736.00
2018-09-24T09:37:47.523Z,1984.00
2018-09-24T09:38:47.401Z,2200.00
2018-09-24T09:39:47.281Z,3272.00
2018-09-24T09:40:47.157Z,3820.00
2018-09-24T09:41:47.034Z,4208.00
2018-09-24T09:42:46.912Z,4388.00
2018-09-24T09:43:46.789Z,4596.00
2018-09-24T09:44:46.668Z,4472.00
2018-09-24T09:45:46.544Z,4164.00
2018-09-24T09:46:46.464Z,5700.00
2018-09-24T09:47:46.299Z,5548.00
2018-09-24T09:48:46.176Z,4968.00
2018-09-24T09:49:46.051Z,4564.00
2018-09-24T09:50:45.933Z,4472.00
2018-09-24T09:51:45.805Z,4620.00
2018-09-24T09:52:45.686Z,4364.00
2018-09-24T09:53:45.561Z,5044.00
2018-09-24T09:54:45.437Z,5576.00
2018-09-24T09:55:45.319Z,5152.00
2018-09-24T09:56:45.192Z,4096.00
2018-09-24T09:57:45.072Z,4384.00
2018-09-24T09:58:44.948Z,4832.00
2018-09-24T09:59:44.826Z,5848.00
2018-09-24T10:00:44.704Z,5488.00
2018-09-24T10:01:44.579Z,4672.00
2018-09-24T10:02:44.458Z,3696.00
2018-09-24T10:03:44.342Z,2236.00
2018-09-24T10:04:44.240Z,2872.00
2018-09-24T10:05:44.092Z,3348.00
2018-09-24T10:06:43.973Z,3648.00
2018-09-24T10:07:43.847Z,3632.00
2018-09-24T10:08:43.726Z,3300.00
2018-09-24T10:09:43.602Z,2204.00
2018-09-24T10:10:43.480Z,3152.00
2018-09-24T10:11:43.363Z,2396.00
2018-09-24T10:12:43.238Z,2932.00
2018-09-24T10:13:43.117Z,1316.00
2018-09-24T10:14:42.993Z,1468.00
2018-09-24T10:15:42.872Z,1808.00
2018-09-24T10:16:42.749Z,3376.00
2018-09-24T10:17:42.627Z,3780.00
2018-09-24T10:18:42.506Z,3744.00
2018-09-24T10:19:42.383Z,4248.00
2018-09-24T10:20:42.261Z,5416.00
2018-09-24T10:21:42.142Z,5784.00
2018-09-24T10:22:42.019Z,5812.00
2018-09-24T10:23:41.895Z,5952.00
2018-09-24T10:24:41.776Z,4352.00
2018-09-24T10:25:41.651Z,4332.00
2018-09-24T10:26:41.533Z,4076.00
2018-09-24T10:27:41.408Z,4112.00
2018-09-24T10:28:41.284Z,5600.00
2018-09-24T10:29:41.163Z,3664.00
2018-09-24T10:30:41.045Z,3136.00
2018-09-24T10:31:40.920Z,4224.00
2018-09-24T10:32:40.828Z,3756.00
2018-09-24T10:33:40.704Z,4020.00
2018-09-24T10:34:40.553Z,4336.00
2018-09-24T10:35:40.428Z,4740.00
2018-09-24T10:36:40.307Z,4896.00
2018-09-24T10:37:40.188Z,5200.00
2018-09-24T10:38:40.063Z,5168.00
2018-09-24T10:39:39.959Z,4972.00
2018-09-24T10:40:39.825Z,4536.00
2018-09-24T10:41:39.697Z,4080.00
2018-09-24T10:42:39.573Z,5400.00
2018-09-24T10:43:39.453Z,3968.00
2018-09-24T10:44:39.334Z,3612.00
2018-09-24T10:45:39.210Z,3068.00
2018-09-24T10:46:39.085Z,2976.00
2018-09-24T10:47:38.962Z,2932.00
2018-09-24T10:48:38.841Z,2600.00
2018-09-24T10:49:38.718Z,2284.00
2018-09-24T10:50:38.597Z,2204.00
2018-09-24T10:51:38.476Z,3364.00
2018-09-24T10:52:38.352Z,3216.00
2018-09-24T10:53:38.226Z,2916.00
2018-09-24T10:54:38.107Z,2932.00
2018-09-24T10:55:38.039Z,3216.00
2018-09-24T10:56:37.860Z,3828.00
2018-09-24T10:57:37.733Z,4064.00
2018-09-24T10:58:37.613Z,4480.00
2018-09-24T10:59:37.535Z,4680.00
2018-09-24T11:00:37.368Z,2968.00
2018-09-24T11:01:37.246Z,3336.00
2018-09-24T11:02:37.122Z,2320.00
2018-09-24T11:03:37.000Z,4348.00
2018-09-24T11:04:36.882Z,3024.00
2018-09-24T11:05:36.756Z,2948.00
2018-09-24T11:06:36.632Z,3128.00
2018-09-24T11:07:36.509Z,2592.00
2018-09-24T11:08:36.388Z,2896.00
2018-09-24T11:09:36.266Z,2548.00
2018-09-24T11:10:36.142Z,2148.00
2018-09-24T11:11:36.018Z,1572.00
2018-09-24T11:12:35.893Z,1760.00
2018-09-24T11:13:35.772Z,2600.00
2018-09-24T11:14:35.650Z,2048.00
2018-09-24T11:15:35.573Z,3156.00
2018-09-24T11:16:35.663Z,2336.00
2018-09-24T11:17:35.540Z,2480.00
2018-09-24T11:18:35.155Z,3192.00
2018-09-24T11:19:35.031Z,3492.00
2018-09-24T11:20:34.913Z,3040.00
2018-09-24T11:21:34.787Z,1764.00
2018-09-24T11:22:34.664Z,3636.00
2018-09-24T11:23:34.572Z,4940.00
2018-09-24T11:24:34.417Z,5080.00
2018-09-24T11:25:34.293Z,5228.00
2018-09-24T11:26:34.172Z,5532.00
2018-09-24T11:27:34.048Z,5908.00
2018-09-24T11:28:33.926Z,5296.00
2018-09-24T11:29:33.864Z,4008.00
2018-09-24T11:30:33.677Z,3584.00
2018-09-24T11:31:33.560Z,4064.00
2018-09-24T11:32:33.431Z,4032.00
2018-09-24T11:33:33.309Z,4072.00
2018-09-24T11:34:33.186Z,3024.00
2018-09-24T11:35:33.063Z,3148.00
2018-09-24T11:36:32.940Z,3248.00
2018-09-24T11:37:32.861Z,2884.00
2018-09-24T11:38:32.692Z,2560.00
2018-09-24T11:39:32.572Z,2420.00
2018-09-24T11:40:32.455Z,1148.00
2018-09-24T11:41:32.334Z,1052.00
2018-09-24T11:42:32.200Z,1032.00
2018-09-24T11:43:32.078Z,2580.00
2018-09-24T11:44:31.953Z,2148.00
2018-09-24T11:45:31.831Z,2016.00
2018-09-24T11:46:31.767Z,1564.00
2018-09-24T11:47:31.584Z,1584.00
2018-09-24T11:48:31.462Z,1948.00
2018-09-24T11:49:31.338Z,2432.00
2018-09-24T11:50:31.213Z,3152.00
2018-09-24T11:51:31.090Z,3652.00
2018-09-24T11:52:30.965Z,3676.00
2018-09-24T11:53:30.840Z,2652.00
2018-09-24T11:54:30.716Z,2112.00
2018-09-24T11:55:30.594Z,2820.00
2018-09-24T11:56:30.472Z,2684.00
2018-09-24T11:57:30.347Z,2904.00
2018-09-24T11:58:30.223Z,2508.00
2018-09-24T11:59:30.105Z,2420.00
2018-09-24T12:00:29.977Z,2556.00
2018-09-24T12:01:29.855Z,2816.00
2018-09-24T12:02:29.795Z,3232.00
2018-09-24T12:03:29.609Z,4328.00
2018-09-24T12:04:29.484Z,3768.00
2018-09-24T12:05:29.358Z,4008.00
2018-09-24T12:06:29.240Z,5688.00
2018-09-24T12:07:29.112Z,5592.00
2018-09-24T12:08:28.989Z,4536.00
2018-09-24T12:09:28.864Z,4556.00
2018-09-24T12:10:28.753Z,5172.00
2018-09-24T12:11:28.634Z,6044.00
2018-09-24T12:12:28.493Z,5244.00
2018-09-24T12:13:28.371Z,5484.00
2018-09-24T12:14:28.244Z,4108.00
2018-09-24T12:15:28.123Z,3532.00
2018-09-24T12:16:27.998Z,5048.00
2018-09-24T12:17:27.874Z,5744.00
2018-09-24T12:18:27.750Z,5696.00
2018-09-24T12:19:27.626Z,4856.00
2018-09-24T12:20:27.503Z,5328.00
2018-09-24T12:21:27.378Z,5392.00
2018-09-24T12:22:27.256Z,6532.00
2018-09-24T12:23:27.134Z,6560.00
2018-09-24T12:24:27.009Z,6384.00
2018-09-24T12:25:26.887Z,5692.00
2018-09-24T12:26:26.761Z,5080.00
2018-09-24T12:27:26.641Z,5056.00
2018-09-24T12:28:26.517Z,5036.00
2018-09-24T12:29:26.398Z,4792.00
2018-09-24T12:30:26.269Z,4216.00
2018-09-24T12:31:26.148Z,4128.00
2018-09-24T12:32:26.022Z,3752.00
2018-09-24T12:33:25.897Z,3352.00
2018-09-24T12:34:25.772Z,3364.00
2018-09-24T12:35:25.649Z,3240.00
2018-09-24T12:36:25.527Z,3012.00